Delray Beach, FL

8:30 PM EDT on August 01, 2015 (GMT -0400)
Lake Ida - Garden House | | Change Station
CLOSE
Current Station
Personal Weather Station
Location: Delray Beach, FL
Elevation: 0 ft
Nearby Weather Stations

Elev 0 ft 26.48 °N, 80.07 °W | Updated 6 minutes ago

Rain
Rain
72.5 °F
Feels Like 71 °F
N
0.0
Wind Variable Wind from SSE

Today
High -- | Low -- °F
--% Chance of Precip.
Yesterday
High -- | Low -- °F
Precip. -- in
6:45 AM 8:07 PM
Waning Gibbous, 96% visible
Pressure 29.97 in
Visibility 10.0 miles
Clouds Mostly Cloudy 3700 ft
Overcast 10000 ft
Heat Index 71 °F
Dew Point 68 °F
Humidity 85%
Rainfall 0.14 in
Snow Depth Not available.
UV 0 out of 12
Pollen 2.70 out of 12
Air Quality Not available.
Flu Activity Not available.
METAR KPMP 012353Z 03005KT 10SM -RA BKN037 OVC100 26/21 A2996 RMK AO2 LTG DSNT NE AND E RAB14 SLP147 P0001 60001 T02560211 10328 20250 50004

More Conditions Fewer Conditions

Pressure 29.97 in
Visibility 10.0 miles
Clouds Mostly Cloudy 3700 ft
Overcast 10000 ft
Heat Index 71 °F
Dew Point 68 °F
Humidity 85%
Rainfall 0.14 in
Snow Depth Not available.
UV 0 out of 12
Pollen 2.70 out of 12
Air Quality Not available.
Flu Activity Not available.
METAR KPMP 012353Z 03005KT 10SM -RA BKN037 OVC100 26/21 A2996 RMK AO2 LTG DSNT NE AND E RAB14 SLP147 P0001 60001 T02560211 10328 20250 50004

More Conditions Fewer Conditions

10-Day Weather Forecast

×

Almanac

Astronomy

Aug. 01, 2015 Rise Set
Actual Time
Civil Twilight
Nautical Twilight
Astronomical Twilight
Moon
Length of Visible Light
Length of Day
Tomorrow will be .
, % of the Moon is Illuminated

Today's Extremes

State Highs State Lows

Community

WunderPhotos

Upload Photos

1,843,102 photos uploaded!

WunderBlogs® & News

Nearby

Air Quality

  Air Quality AQ Index Pollutant
Not available.

Snow Depth

Station Depth Elevation

Earthquake Activity

City Distance Mag. Time & Date
Minimum magnitude displayed is 2.5.

Coastal Water Temperatures

Place Temperature

Stations

Nearby Weather Stations

Station Location Temp. Windchill Dew Point Humidity Wind Precip. Elev Updated Type